createdAt,value
2023-05-19T00:00:39.970Z,125.32
2023-05-19T00:01:40.026Z,127.02
2023-05-19T00:02:40.219Z,126.43
2023-05-19T00:03:40.149Z,125.70
2023-05-19T00:04:40.170Z,125.61
2023-05-19T00:05:40.252Z,127.19
2023-05-19T00:06:40.263Z,126.55
2023-05-19T00:07:40.309Z,125.13
2023-05-19T00:08:40.368Z,125.97
2023-05-19T00:09:40.444Z,126.02
2023-05-19T00:10:40.500Z,125.44
2023-05-19T00:11:40.568Z,126.02
2023-05-19T00:12:40.585Z,126.22
2023-05-19T00:13:40.648Z,123.59
2023-05-19T00:14:40.702Z,124.26
2023-05-19T00:15:40.752Z,126.72
2023-05-19T00:16:40.815Z,128.74
2023-05-19T00:17:40.888Z,128.39
2023-05-19T00:18:40.907Z,129.26
2023-05-19T00:19:40.864Z,129.01
2023-05-19T00:20:40.858Z,130.00
2023-05-19T00:21:40.866Z,131.67
2023-05-19T00:22:40.873Z,133.04
2023-05-19T00:23:40.929Z,129.99
2023-05-19T00:24:40.989Z,132.21
2023-05-19T00:25:40.973Z,131.72
2023-05-19T00:26:40.973Z,131.57
2023-05-19T00:27:41.017Z,131.75
2023-05-19T00:28:41.025Z,129.98
2023-05-19T00:29:41.029Z,129.38
2023-05-19T00:30:41.042Z,127.77
2023-05-19T00:31:41.056Z,128.83
2023-05-19T00:32:41.127Z,128.89
2023-05-19T00:33:41.105Z,128.76
2023-05-19T00:34:41.079Z,127.63
2023-05-19T00:35:41.185Z,127.85
2023-05-19T00:36:41.235Z,127.58
2023-05-19T00:37:41.193Z,127.79
2023-05-19T00:38:41.186Z,129.61
2023-05-19T00:39:41.212Z,131.13
2023-05-19T00:40:41.208Z,131.87
2023-05-19T00:41:41.246Z,132.76
2023-05-19T00:42:41.270Z,133.55
2023-05-19T00:43:41.251Z,134.23
2023-05-19T00:44:41.245Z,134.47
2023-05-19T00:45:41.232Z,138.74
2023-05-19T00:46:41.306Z,137.62
2023-05-19T00:47:41.322Z,137.66
2023-05-19T00:48:41.264Z,138.48
2023-05-19T00:49:41.266Z,138.20
2023-05-19T00:50:41.272Z,141.19
2023-05-19T00:51:41.275Z,138.85
2023-05-19T00:52:41.255Z,141.66
2023-05-19T00:53:41.273Z,146.66
2023-05-19T00:54:41.287Z,145.25
2023-05-19T00:55:41.262Z,144.86
2023-05-19T00:56:41.304Z,143.84
2023-05-19T00:57:41.377Z,145.84
2023-05-19T00:58:41.366Z,144.74
2023-05-19T00:59:41.404Z,147.42
2023-05-19T01:00:41.426Z,146.47
2023-05-19T01:01:41.372Z,147.24
2023-05-19T01:02:41.462Z,147.41
2023-05-19T01:03:41.590Z,150.65
2023-05-19T01:04:41.526Z,149.91
2023-05-19T01:05:41.621Z,152.61
2023-05-19T01:06:41.557Z,154.62
2023-05-19T01:07:41.561Z,152.97
2023-05-19T01:08:41.516Z,151.59
2023-05-19T01:09:41.630Z,151.36
2023-05-19T01:10:41.711Z,151.53
2023-05-19T01:11:41.847Z,150.04
2023-05-19T01:12:41.944Z,148.92
2023-05-19T01:13:42.395Z,148.18
2023-05-19T01:14:42.127Z,148.17
2023-05-19T01:15:42.214Z,148.85
2023-05-19T01:16:42.376Z,150.60
2023-05-19T01:17:42.441Z,148.77
2023-05-19T01:18:42.477Z,148.82
2023-05-19T01:19:42.486Z,148.38
2023-05-19T01:20:42.458Z,146.14
2023-05-19T01:21:42.486Z,146.06
2023-05-19T01:22:42.516Z,148.28
2023-05-19T01:23:42.554Z,149.49
2023-05-19T01:24:42.548Z,150.44
2023-05-19T01:25:42.543Z,149.78
2023-05-19T01:26:42.586Z,153.40
2023-05-19T01:27:42.554Z,150.90
2023-05-19T01:28:42.554Z,150.81
2023-05-19T01:29:42.552Z,153.26
2023-05-19T01:30:42.579Z,150.50
2023-05-19T01:31:42.652Z,153.28
2023-05-19T01:32:42.613Z,151.44
2023-05-19T01:33:42.667Z,152.27
2023-05-19T01:34:42.748Z,150.38
2023-05-19T01:35:42.757Z,149.98
2023-05-19T01:36:42.782Z,150.97
2023-05-19T01:37:42.743Z,152.06
2023-05-19T01:38:42.794Z,150.37
2023-05-19T01:39:42.817Z,151.26
2023-05-19T01:40:42.873Z,154.09
2023-05-19T01:41:43.003Z,151.82
2023-05-19T01:42:43.077Z,151.27
2023-05-19T01:43:43.146Z,153.48
2023-05-19T01:44:43.150Z,152.55
2023-05-19T01:45:43.189Z,152.33
2023-05-19T01:46:43.178Z,153.13
2023-05-19T01:47:43.202Z,152.25
2023-05-19T01:48:43.277Z,151.87
2023-05-19T01:49:43.354Z,151.26
2023-05-19T01:50:43.462Z,149.96
2023-05-19T01:51:43.535Z,147.46
2023-05-19T01:52:43.661Z,148.60
2023-05-19T01:53:43.697Z,147.77
2023-05-19T01:54:43.688Z,149.07
2023-05-19T01:55:43.689Z,151.71
2023-05-19T01:56:43.892Z,151.08
2023-05-19T01:57:43.688Z,149.39
2023-05-19T01:58:43.758Z,150.23
2023-05-19T01:59:43.781Z,150.06
2023-05-19T02:00:43.826Z,149.68
2023-05-19T02:01:43.918Z,149.54
2023-05-19T02:02:43.884Z,150.34
2023-05-19T02:03:43.872Z,149.65
2023-05-19T02:04:44.034Z,150.16
2023-05-19T02:05:43.955Z,148.84
2023-05-19T02:06:43.928Z,153.01
2023-05-19T02:07:44.007Z,150.63
2023-05-19T02:08:43.982Z,152.02
2023-05-19T02:09:44.008Z,155.19
2023-05-19T02:10:44.034Z,152.89
2023-05-19T02:11:44.067Z,153.14
2023-05-19T02:12:44.118Z,149.55
2023-05-19T02:13:44.121Z,150.05
2023-05-19T02:14:44.148Z,152.98
2023-05-19T02:15:44.208Z,151.72
2023-05-19T02:16:44.218Z,153.85
2023-05-19T02:17:44.258Z,155.51
2023-05-19T02:18:44.219Z,157.23
2023-05-19T02:19:44.241Z,154.68
2023-05-19T02:20:44.290Z,156.97
2023-05-19T02:21:44.316Z,156.52
2023-05-19T02:22:44.317Z,158.25
2023-05-19T02:23:44.317Z,158.21
2023-05-19T02:24:44.344Z,159.34
2023-05-19T02:25:44.338Z,159.52
2023-05-19T02:26:44.365Z,160.56
2023-05-19T02:27:44.394Z,160.24
2023-05-19T02:28:44.393Z,160.93
2023-05-19T02:29:44.438Z,162.49
2023-05-19T02:30:44.412Z,163.56
2023-05-19T02:31:44.438Z,163.86
2023-05-19T02:32:44.518Z,164.35
2023-05-19T02:33:44.513Z,164.22
2023-05-19T02:34:44.525Z,163.05
2023-05-19T02:35:44.529Z,163.41
2023-05-19T02:36:44.580Z,166.40
2023-05-19T02:37:44.575Z,164.85
2023-05-19T02:38:44.627Z,167.34
2023-05-19T02:39:44.622Z,168.42
2023-05-19T02:40:44.680Z,168.12
2023-05-19T02:41:44.680Z,165.97
2023-05-19T02:42:44.701Z,169.09
2023-05-19T02:43:44.740Z,166.49
2023-05-19T02:44:44.741Z,169.21
2023-05-19T02:45:44.765Z,166.23
2023-05-19T02:46:44.956Z,166.96
2023-05-19T02:47:44.850Z,167.56
2023-05-19T02:48:44.832Z,169.50
2023-05-19T02:49:44.826Z,171.25
2023-05-19T02:50:44.836Z,170.63
2023-05-19T02:51:44.915Z,172.86
2023-05-19T02:52:44.901Z,173.17
2023-05-19T02:53:44.915Z,174.35
2023-05-19T02:54:44.923Z,175.87
2023-05-19T02:55:44.933Z,177.24
2023-05-19T02:56:44.957Z,180.41
2023-05-19T02:57:44.947Z,180.93
2023-05-19T02:58:44.999Z,180.94
2023-05-19T02:59:45.001Z,182.36
2023-05-19T03:00:45.009Z,181.45
2023-05-19T03:01:45.132Z,182.84
2023-05-19T03:02:45.184Z,185.33
2023-05-19T03:03:45.132Z,185.55
2023-05-19T03:04:45.116Z,186.86
2023-05-19T03:05:45.137Z,187.78
2023-05-19T03:06:45.140Z,189.58
2023-05-19T03:07:45.186Z,192.89
2023-05-19T03:08:45.199Z,193.35
2023-05-19T03:09:45.219Z,192.39
2023-05-19T03:10:45.217Z,193.90
2023-05-19T03:11:45.255Z,194.64
2023-05-19T03:12:45.287Z,196.41
2023-05-19T03:13:45.316Z,197.22
2023-05-19T03:14:45.320Z,198.91
2023-05-19T03:15:45.360Z,199.37
2023-05-19T03:16:45.788Z,200.00
2023-05-19T03:17:45.616Z,200.00
2023-05-19T03:18:45.506Z,199.73
2023-05-19T03:19:45.448Z,199.77
2023-05-19T03:20:45.483Z,198.72
2023-05-19T03:21:45.945Z,199.06
2023-05-19T03:22:45.513Z,199.12
2023-05-19T03:23:45.530Z,198.11
2023-05-19T03:24:45.576Z,197.26
2023-05-19T03:25:45.577Z,198.91
2023-05-19T03:26:45.597Z,198.30
2023-05-19T03:27:45.650Z,197.37
2023-05-19T03:28:45.666Z,197.81
2023-05-19T03:29:45.692Z,196.13
2023-05-19T03:30:45.733Z,196.67
2023-05-19T03:31:45.794Z,198.91
2023-05-19T03:32:45.846Z,197.26
2023-05-19T03:33:45.857Z,196.77
2023-05-19T03:34:45.855Z,197.54
2023-05-19T03:35:45.898Z,197.27
2023-05-19T03:36:45.929Z,197.15
2023-05-19T03:37:45.938Z,199.12
2023-05-19T03:38:46.002Z,199.17
2023-05-19T03:39:46.008Z,198.19
2023-05-19T03:40:46.072Z,198.14
2023-05-19T03:41:46.101Z,200.00
2023-05-19T03:42:46.117Z,197.98
2023-05-19T03:43:46.159Z,198.85
2023-05-19T03:44:46.214Z,199.72
2023-05-19T03:45:46.283Z,198.82
2023-05-19T03:46:46.255Z,198.89
2023-05-19T03:47:46.372Z,197.73
2023-05-19T03:48:46.360Z,198.01
2023-05-19T03:49:46.400Z,198.19
2023-05-19T03:50:46.443Z,197.04
2023-05-19T03:51:46.494Z,195.81
2023-05-19T03:52:46.528Z,196.82
2023-05-19T03:53:46.557Z,198.76
2023-05-19T03:54:46.576Z,198.67
2023-05-19T03:55:46.635Z,199.19
2023-05-19T03:56:46.716Z,199.26
2023-05-19T03:57:46.719Z,198.56
2023-05-19T03:58:46.733Z,198.01
2023-05-19T03:59:46.841Z,199.18
2023-05-19T04:00:46.831Z,196.76
2023-05-19T04:01:46.912Z,198.79
2023-05-19T04:02:47.021Z,196.59
2023-05-19T04:03:47.027Z,197.76
2023-05-19T04:04:47.120Z,197.85
2023-05-19T04:05:47.042Z,200.77
2023-05-19T04:06:47.158Z,199.87
2023-05-19T04:07:47.176Z,200.00
2023-05-19T04:08:47.201Z,199.61
2023-05-19T04:09:47.242Z,197.80
2023-05-19T04:10:47.297Z,196.67
2023-05-19T04:11:47.317Z,197.87
2023-05-19T04:12:47.401Z,198.42
2023-05-19T04:13:47.511Z,198.09
2023-05-19T04:14:47.450Z,200.02
2023-05-19T04:15:47.590Z,198.82
2023-05-19T04:16:47.579Z,200.00
2023-05-19T04:17:47.664Z,199.89
2023-05-19T04:18:47.658Z,199.65
2023-05-19T04:19:47.676Z,199.28
2023-05-19T04:20:47.731Z,199.71
2023-05-19T04:21:47.805Z,198.33
2023-05-19T04:22:47.819Z,198.33
2023-05-19T04:23:47.868Z,200.00
2023-05-19T04:24:47.899Z,200.00
2023-05-19T04:25:47.933Z,198.78
2023-05-19T04:26:47.967Z,199.13
2023-05-19T04:27:48.030Z,200.00
2023-05-19T04:28:48.108Z,199.61
2023-05-19T04:29:48.144Z,199.26
2023-05-19T04:30:48.178Z,198.52
2023-05-19T04:31:48.250Z,199.08
2023-05-19T04:32:48.347Z,199.60
2023-05-19T04:33:48.349Z,198.55
2023-05-19T04:34:48.402Z,199.73
2023-05-19T04:35:48.429Z,199.41
2023-05-19T04:36:49.148Z,197.25
2023-05-19T04:37:48.514Z,195.94
2023-05-19T04:38:49.474Z,196.37
2023-05-19T04:39:48.604Z,196.03
2023-05-19T04:40:48.682Z,198.44
2023-05-19T04:41:48.753Z,197.95
2023-05-19T04:42:48.781Z,197.38
2023-05-19T04:43:48.827Z,196.10
2023-05-19T04:44:48.882Z,198.76
2023-05-19T04:45:48.937Z,199.57
2023-05-19T04:46:48.980Z,199.85
2023-05-19T04:47:49.064Z,199.54
2023-05-19T04:48:49.049Z,199.34
2023-05-19T04:49:49.106Z,200.51
2023-05-19T04:50:49.169Z,200.52
2023-05-19T04:51:49.193Z,200.85
2023-05-19T04:52:49.204Z,202.41
2023-05-19T04:53:49.277Z,200.03
2023-05-19T04:54:49.298Z,199.39
2023-05-19T04:55:49.306Z,199.76
2023-05-19T04:56:49.331Z,197.45
2023-05-19T04:57:49.352Z,198.37
2023-05-19T04:58:49.391Z,199.32
2023-05-19T04:59:49.460Z,198.92
2023-05-19T05:00:49.561Z,198.77
2023-05-19T05:01:49.673Z,199.67
2023-05-19T05:02:49.822Z,198.52
2023-05-19T05:03:49.758Z,199.12
2023-05-19T05:04:49.776Z,199.52
2023-05-19T05:05:49.784Z,198.07
2023-05-19T05:06:49.758Z,200.00
2023-05-19T05:07:49.781Z,198.50
2023-05-19T05:08:49.819Z,199.82
2023-05-19T05:09:49.832Z,197.62
2023-05-19T05:10:49.800Z,198.35
2023-05-19T05:11:49.844Z,199.90
2023-05-19T05:12:49.851Z,199.28
2023-05-19T05:13:49.868Z,200.00
2023-05-19T05:14:49.910Z,197.33
2023-05-19T05:15:49.949Z,198.98
2023-05-19T05:16:49.981Z,195.96
2023-05-19T05:17:49.943Z,196.61
2023-05-19T05:18:49.920Z,196.96
2023-05-19T05:19:49.933Z,196.62
2023-05-19T05:20:49.960Z,197.31
2023-05-19T05:21:50.072Z,196.83
2023-05-19T05:22:50.021Z,196.97
2023-05-19T05:23:50.024Z,197.24
2023-05-19T05:24:50.028Z,194.58
2023-05-19T05:25:50.019Z,191.36
2023-05-19T05:26:50.090Z,190.31
2023-05-19T05:27:50.193Z,190.84
2023-05-19T05:28:50.081Z,189.27
2023-05-19T05:29:51.588Z,189.63
2023-05-19T05:30:50.075Z,189.66
2023-05-19T05:31:50.107Z,189.39
2023-05-19T05:32:50.179Z,189.97
2023-05-19T05:33:50.212Z,189.25
2023-05-19T05:34:50.168Z,188.58
2023-05-19T05:35:50.192Z,189.62
2023-05-19T05:36:50.191Z,189.22
2023-05-19T05:37:50.182Z,190.06
2023-05-19T05:38:50.235Z,189.90
2023-05-19T05:39:50.232Z,191.69
2023-05-19T05:40:50.278Z,190.20
2023-05-19T05:41:50.250Z,190.92
2023-05-19T05:42:50.416Z,193.13
2023-05-19T05:43:50.341Z,194.69
2023-05-19T05:44:50.342Z,195.62
2023-05-19T05:45:50.379Z,197.61
2023-05-19T05:46:50.384Z,198.51
2023-05-19T05:47:50.458Z,198.17
2023-05-19T05:48:50.449Z,197.22
2023-05-19T05:49:52.110Z,199.96
2023-05-19T05:50:50.474Z,199.81
2023-05-19T05:52:01.814Z,199.02
2023-05-19T05:52:51.442Z,199.12
2023-05-19T05:53:50.457Z,199.14
2023-05-19T05:54:50.396Z,199.49
2023-05-19T05:55:50.409Z,198.74
2023-05-19T05:56:50.413Z,201.76
2023-05-19T05:57:50.393Z,199.03
2023-05-19T05:58:50.389Z,196.43
2023-05-19T05:59:50.394Z,198.53
2023-05-19T06:00:50.382Z,196.78
2023-05-19T06:01:50.350Z,196.98
2023-05-19T06:02:50.489Z,196.66
2023-05-19T06:03:50.399Z,195.96
2023-05-19T06:04:50.360Z,197.15
2023-05-19T06:05:50.434Z,196.37
2023-05-19T06:06:50.340Z,196.20
2023-05-19T06:07:50.332Z,198.54
2023-05-19T06:08:50.320Z,198.07
2023-05-19T06:09:50.347Z,200.26
2023-05-19T06:10:50.351Z,198.33
2023-05-19T06:11:50.401Z,198.19
2023-05-19T06:12:50.428Z,198.54
2023-05-19T06:13:50.468Z,197.78
2023-05-19T06:14:50.539Z,198.50
2023-05-19T06:15:50.632Z,200.16
2023-05-19T06:16:50.658Z,200.34
2023-05-19T06:17:50.835Z,199.48
2023-05-19T06:18:50.809Z,199.13
2023-05-19T06:19:50.851Z,200.00
2023-05-19T06:20:50.884Z,200.00
2023-05-19T06:21:50.965Z,199.53
2023-05-19T06:22:51.040Z,198.19
2023-05-19T06:23:51.109Z,199.66
2023-05-19T06:24:51.149Z,198.31
2023-05-19T06:25:51.179Z,199.37
2023-05-19T06:26:51.232Z,199.81
2023-05-19T06:27:51.330Z,199.59
2023-05-19T06:28:51.424Z,198.24
2023-05-19T06:29:51.460Z,196.64
2023-05-19T06:30:51.505Z,195.02
2023-05-19T06:31:51.726Z,193.59
2023-05-19T06:32:51.628Z,193.44
2023-05-19T06:33:51.689Z,193.72
2023-05-19T06:34:51.732Z,191.50
2023-05-19T06:35:51.782Z,190.78
2023-05-19T06:36:51.801Z,190.19
2023-05-19T06:37:51.857Z,188.10
2023-05-19T06:38:51.937Z,189.22
2023-05-19T06:39:51.963Z,188.85
2023-05-19T06:40:52.024Z,189.19
2023-05-19T06:41:52.076Z,190.32
2023-05-19T06:42:52.171Z,190.56
2023-05-19T06:43:52.208Z,191.03
2023-05-19T06:44:52.250Z,190.05
2023-05-19T06:45:52.306Z,191.69
2023-05-19T06:46:52.449Z,190.16
2023-05-19T06:47:52.463Z,191.89
2023-05-19T06:48:52.468Z,189.80
2023-05-19T06:49:52.516Z,187.34
2023-05-19T06:50:52.593Z,187.59
2023-05-19T06:51:52.601Z,187.99
2023-05-19T06:52:52.675Z,187.24
2023-05-19T06:53:52.709Z,186.34
2023-05-19T06:54:52.786Z,186.08
2023-05-19T06:55:59.319Z,186.37
2023-05-19T06:56:53.811Z,186.47
2023-05-19T06:57:52.948Z,186.70
2023-05-19T06:58:52.822Z,186.50
2023-05-19T06:59:52.810Z,185.72
2023-05-19T07:00:52.778Z,184.71
2023-05-19T07:01:53.001Z,187.62
2023-05-19T07:02:52.873Z,185.51
2023-05-19T07:03:52.850Z,186.50
2023-05-19T07:04:52.793Z,184.34
2023-05-19T07:05:52.755Z,184.48
2023-05-19T07:06:52.787Z,184.07
2023-05-19T07:07:52.848Z,178.13
2023-05-19T07:08:52.899Z,172.58
2023-05-19T07:09:52.959Z,169.97
2023-05-19T07:10:52.953Z,169.77
2023-05-19T07:11:53.044Z,171.18
2023-05-19T07:12:53.064Z,172.41
2023-05-19T07:13:53.133Z,171.66
2023-05-19T07:14:53.173Z,169.74
2023-05-19T07:15:53.298Z,168.08
2023-05-19T07:16:53.321Z,170.47
2023-05-19T07:17:53.339Z,171.76
2023-05-19T07:18:53.409Z,175.99
2023-05-19T07:19:53.429Z,173.49
2023-05-19T07:20:53.475Z,174.44
2023-05-19T07:21:53.541Z,169.39
2023-05-19T07:22:53.566Z,168.60
2023-05-19T07:23:53.627Z,170.66
2023-05-19T07:24:53.684Z,173.15
2023-05-19T07:25:53.721Z,173.00
2023-05-19T07:26:53.745Z,173.06
2023-05-19T07:27:53.780Z,169.87
2023-05-19T07:28:53.782Z,167.18
2023-05-19T07:29:53.881Z,168.97
2023-05-19T07:30:53.868Z,167.04
2023-05-19T07:31:54.055Z,169.91
2023-05-19T07:32:53.984Z,172.79
2023-05-19T07:33:54.835Z,172.77
2023-05-19T07:34:54.076Z,172.38
2023-05-19T07:35:54.090Z,167.47
2023-05-19T07:36:54.119Z,169.31
2023-05-19T07:37:54.152Z,167.55
2023-05-19T07:38:54.188Z,168.06
2023-05-19T07:39:54.216Z,166.56
2023-05-19T07:40:54.237Z,167.31
2023-05-19T07:41:54.293Z,173.16
2023-05-19T07:42:54.273Z,171.92
2023-05-19T07:43:54.334Z,173.25
2023-05-19T07:44:54.346Z,175.29
2023-05-19T07:45:54.486Z,176.45
2023-05-19T07:46:54.476Z,176.12
2023-05-19T07:47:54.514Z,177.51
2023-05-19T07:48:54.536Z,175.95
2023-05-19T07:49:54.540Z,175.39
2023-05-19T07:50:54.549Z,175.01
2023-05-19T07:51:54.610Z,175.23
2023-05-19T07:52:54.631Z,179.10
2023-05-19T07:53:54.635Z,178.80
2023-05-19T07:54:54.704Z,179.26
2023-05-19T07:55:56.494Z,179.79
2023-05-19T07:56:54.697Z,180.94
2023-05-19T07:57:54.656Z,180.76
2023-05-19T07:58:54.672Z,179.48
2023-05-19T07:59:54.669Z,180.41
2023-05-19T08:00:54.669Z,180.49
2023-05-19T08:01:54.668Z,181.31
2023-05-19T08:02:54.744Z,181.49
2023-05-19T08:03:54.810Z,181.40
2023-05-19T08:04:54.801Z,181.70
2023-05-19T08:05:54.636Z,178.50
2023-05-19T08:06:54.620Z,179.41
2023-05-19T08:07:54.641Z,177.79
2023-05-19T08:08:54.613Z,176.32
2023-05-19T08:09:54.617Z,174.15
2023-05-19T08:10:54.634Z,178.40
2023-05-19T08:11:54.626Z,174.50
2023-05-19T08:12:54.595Z,173.53
2023-05-19T08:13:54.659Z,172.79
2023-05-19T08:14:54.586Z,173.50
2023-05-19T08:15:54.623Z,173.70
2023-05-19T08:16:54.599Z,175.00
2023-05-19T08:17:54.698Z,175.91
2023-05-19T08:18:54.590Z,177.74
2023-05-19T08:19:54.560Z,174.35
2023-05-19T08:20:54.558Z,175.28
2023-05-19T08:21:55.060Z,174.97
2023-05-19T08:22:54.552Z,171.27
2023-05-19T08:23:54.530Z,170.10
2023-05-19T08:24:54.542Z,170.00
2023-05-19T08:25:54.559Z,170.89
2023-05-19T08:26:54.504Z,171.80
2023-05-19T08:27:54.504Z,170.82
2023-05-19T08:28:54.493Z,170.70
2023-05-19T08:29:54.485Z,169.16
2023-05-19T08:30:54.513Z,170.14
2023-05-19T08:31:54.495Z,166.46
2023-05-19T08:32:54.488Z,163.71
2023-05-19T08:33:54.468Z,160.23
2023-05-19T08:34:54.481Z,160.59
2023-05-19T08:35:54.459Z,162.94
2023-05-19T08:36:54.442Z,167.00
2023-05-19T08:37:54.442Z,167.90
2023-05-19T08:38:54.443Z,168.47
2023-05-19T08:39:54.456Z,170.00
2023-05-19T08:40:54.435Z,171.08
2023-05-19T08:41:54.431Z,172.83
2023-05-19T08:42:54.410Z,171.70
2023-05-19T08:43:54.379Z,166.18
2023-05-19T08:44:54.395Z,167.53
2023-05-19T08:45:54.437Z,167.36
2023-05-19T08:46:54.468Z,169.06
2023-05-19T08:47:54.361Z,173.04
2023-05-19T08:48:54.362Z,174.38
2023-05-19T08:49:54.398Z,179.08
2023-05-19T08:50:54.348Z,168.89
2023-05-19T08:51:54.386Z,169.55
2023-05-19T08:52:54.331Z,167.83
2023-05-19T08:53:54.339Z,168.70
2023-05-19T08:54:54.302Z,170.21
2023-05-19T08:55:54.301Z,174.03
2023-05-19T08:56:54.396Z,176.56
2023-05-19T08:57:54.310Z,179.53
2023-05-19T08:58:54.285Z,181.88
2023-05-19T08:59:54.321Z,184.60
2023-05-19T09:00:54.310Z,187.13
2023-05-19T09:01:54.280Z,185.53
2023-05-19T09:03:00.967Z,182.25
2023-05-19T09:03:55.331Z,182.12
2023-05-19T09:04:54.349Z,179.20
2023-05-19T09:05:54.295Z,178.74
2023-05-19T09:06:54.564Z,182.38
2023-05-19T09:07:54.256Z,181.65
2023-05-19T09:08:54.242Z,180.44
2023-05-19T09:09:54.200Z,178.86
2023-05-19T09:10:54.226Z,177.16
2023-05-19T09:11:54.215Z,177.57
2023-05-19T09:12:54.214Z,175.55
2023-05-19T09:13:54.228Z,176.58
2023-05-19T09:14:54.207Z,177.19
2023-05-19T09:15:54.190Z,180.70
2023-05-19T09:16:54.256Z,182.67
2023-05-19T09:17:54.239Z,183.64
2023-05-19T09:18:54.217Z,185.83
2023-05-19T09:19:54.161Z,188.70
2023-05-19T09:20:54.203Z,188.89
2023-05-19T09:21:54.188Z,189.29
2023-05-19T09:22:56.116Z,186.06
2023-05-19T09:23:54.157Z,189.53
2023-05-19T09:24:54.122Z,189.32
2023-05-19T09:25:54.127Z,190.58
2023-05-19T09:26:54.102Z,189.69
2023-05-19T09:27:54.116Z,190.05
2023-05-19T09:28:54.087Z,184.91
2023-05-19T09:29:54.105Z,175.44
2023-05-19T09:30:54.120Z,172.81
2023-05-19T09:31:54.354Z,175.64
2023-05-19T09:32:54.194Z,173.52
2023-05-19T09:33:54.100Z,176.07
2023-05-19T09:34:54.093Z,181.67
2023-05-19T09:35:54.060Z,179.34
2023-05-19T09:36:54.185Z,177.43
2023-05-19T09:37:54.077Z,176.99
2023-05-19T09:38:54.058Z,174.95
2023-05-19T09:39:54.079Z,173.14
2023-05-19T09:40:54.095Z,181.42
2023-05-19T09:41:54.162Z,175.43
2023-05-19T09:42:54.203Z,176.27
2023-05-19T09:43:54.290Z,174.28
2023-05-19T09:44:54.253Z,178.86
2023-05-19T09:45:54.319Z,177.15
2023-05-19T09:46:54.366Z,176.45
2023-05-19T09:47:54.505Z,176.56
2023-05-19T09:48:54.433Z,177.51
2023-05-19T09:49:54.437Z,172.58
2023-05-19T09:50:54.527Z,162.43
2023-05-19T09:51:54.620Z,162.80
2023-05-19T09:52:54.586Z,159.04
2023-05-19T09:53:54.634Z,156.26
2023-05-19T09:54:54.697Z,155.80
2023-05-19T09:55:54.700Z,156.58
2023-05-19T09:56:54.764Z,159.03
2023-05-19T09:57:54.825Z,165.08
2023-05-19T09:58:54.845Z,166.88
2023-05-19T09:59:54.919Z,169.31
2023-05-19T10:00:54.989Z,168.01
2023-05-19T10:01:55.117Z,167.92
2023-05-19T10:02:55.116Z,168.82
2023-05-19T10:03:55.166Z,167.79
2023-05-19T10:04:55.298Z,161.70
2023-05-19T10:05:55.326Z,166.08
2023-05-19T10:06:55.359Z,157.73
2023-05-19T10:07:55.466Z,162.69
2023-05-19T10:08:55.471Z,155.88
2023-05-19T10:09:56.702Z,158.67
2023-05-19T10:10:55.583Z,164.01
2023-05-19T10:11:55.673Z,161.39
2023-05-19T10:12:55.749Z,156.88
2023-05-19T10:13:55.788Z,160.76
2023-05-19T10:14:55.839Z,168.94
2023-05-19T10:15:59.334Z,170.74
2023-05-19T10:16:56.075Z,164.69
2023-05-19T10:17:55.927Z,150.64
2023-05-19T10:18:55.957Z,146.57
2023-05-19T10:19:55.860Z,144.37
2023-05-19T10:20:55.885Z,147.37
2023-05-19T10:21:55.886Z,150.66
2023-05-19T10:22:55.942Z,153.39
2023-05-19T10:23:55.881Z,161.80
2023-05-19T10:24:55.873Z,158.04
2023-05-19T10:25:55.953Z,153.60
2023-05-19T10:26:55.839Z,147.36
2023-05-19T10:27:55.839Z,145.65
2023-05-19T10:28:55.832Z,149.50
2023-05-19T10:29:55.809Z,152.43
2023-05-19T10:30:55.813Z,157.80
2023-05-19T10:31:55.813Z,151.53
2023-05-19T10:32:55.851Z,158.20
2023-05-19T10:33:55.800Z,161.91
2023-05-19T10:34:55.811Z,160.98
2023-05-19T10:35:55.817Z,162.49
2023-05-19T10:36:55.774Z,164.10
2023-05-19T10:37:55.783Z,160.63
2023-05-19T10:38:55.754Z,161.77
2023-05-19T10:39:55.795Z,154.74
2023-05-19T10:40:55.775Z,159.59
2023-05-19T10:41:55.765Z,160.30
2023-05-19T10:42:55.767Z,163.72
2023-05-19T10:43:55.764Z,174.85
2023-05-19T10:44:55.725Z,176.36
2023-05-19T10:45:55.775Z,177.62
2023-05-19T10:46:56.922Z,177.65
2023-05-19T10:47:55.850Z,181.36
2023-05-19T10:48:55.869Z,182.87
2023-05-19T10:49:55.889Z,178.17
2023-05-19T10:50:55.916Z,171.10
2023-05-19T10:51:56.008Z,169.07
2023-05-19T10:52:55.985Z,174.92
2023-05-19T10:53:56.057Z,181.13
2023-05-19T10:54:56.031Z,184.40
2023-05-19T10:55:56.292Z,187.26
2023-05-19T10:56:56.107Z,185.21
2023-05-19T10:57:56.130Z,190.21
2023-05-19T10:58:56.185Z,194.67
2023-05-19T10:59:56.186Z,202.03
2023-05-19T11:00:56.230Z,198.57
2023-05-19T11:01:56.272Z,197.14
2023-05-19T11:02:56.428Z,191.65
2023-05-19T11:03:56.336Z,190.91
2023-05-19T11:04:56.294Z,191.22
2023-05-19T11:05:56.345Z,187.86
2023-05-19T11:06:56.356Z,191.56
2023-05-19T11:07:56.414Z,192.23
2023-05-19T11:08:56.395Z,189.21
2023-05-19T11:09:56.436Z,188.55
2023-05-19T11:10:56.419Z,189.15
2023-05-19T11:11:56.439Z,189.45
2023-05-19T11:13:56.558Z,197.65
2023-05-19T11:14:56.477Z,198.52
2023-05-19T11:15:56.452Z,197.74
2023-05-19T11:16:56.545Z,195.49
2023-05-19T11:17:56.536Z,192.22
2023-05-19T11:18:56.562Z,180.02
2023-05-19T11:19:56.528Z,176.45
2023-05-19T11:20:56.536Z,170.48
2023-05-19T11:21:56.518Z,171.73
2023-05-19T11:22:56.555Z,174.04
2023-05-19T11:23:56.612Z,178.17
2023-05-19T11:24:56.618Z,181.54
2023-05-19T11:25:56.575Z,180.97
2023-05-19T11:26:56.568Z,184.41
2023-05-19T11:27:56.601Z,190.03
2023-05-19T11:28:56.597Z,191.87
2023-05-19T11:29:56.620Z,194.28
2023-05-19T11:30:56.628Z,195.55
2023-05-19T11:31:56.666Z,198.30
2023-05-19T11:32:56.706Z,197.24
2023-05-19T11:33:56.657Z,196.10
2023-05-19T11:34:56.641Z,199.15
2023-05-19T11:35:56.663Z,196.61
2023-05-19T11:36:56.682Z,195.23
2023-05-19T11:37:56.673Z,198.42
2023-05-19T11:38:56.640Z,198.40
2023-05-19T11:39:56.672Z,200.00
2023-05-19T11:40:56.677Z,193.84
2023-05-19T11:41:56.663Z,197.19
2023-05-19T11:42:57.580Z,197.35
2023-05-19T11:43:56.685Z,196.64
2023-05-19T11:44:56.632Z,197.76
2023-05-19T11:45:56.723Z,199.53
2023-05-19T11:46:56.703Z,196.03
2023-05-19T11:48:02.755Z,196.42
2023-05-19T11:48:57.668Z,196.51
2023-05-19T11:49:56.669Z,196.73
2023-05-19T11:50:56.670Z,196.60
2023-05-19T11:51:56.652Z,196.65
2023-05-19T11:52:56.646Z,191.30
2023-05-19T11:53:56.634Z,188.04
2023-05-19T11:54:56.594Z,188.10
2023-05-19T11:55:56.659Z,188.33
2023-05-19T11:56:56.601Z,188.20
2023-05-19T11:58:03.964Z,188.94
2023-05-19T11:58:57.630Z,189.14
2023-05-19T11:59:56.589Z,189.60
2023-05-19T12:00:56.609Z,190.64
2023-05-19T12:01:56.591Z,190.34
2023-05-19T12:02:56.690Z,192.47
2023-05-19T12:03:56.713Z,193.83
2023-05-19T12:04:56.566Z,196.53
2023-05-19T12:05:56.672Z,192.83
2023-05-19T12:06:56.564Z,178.08
2023-05-19T12:07:56.534Z,172.35
2023-05-19T12:08:56.558Z,177.12
2023-05-19T12:09:56.627Z,175.73
2023-05-19T12:10:56.647Z,173.70
2023-05-19T12:11:56.683Z,178.65
2023-05-19T12:12:56.729Z,185.27
2023-05-19T12:13:56.796Z,185.13
2023-05-19T12:14:56.829Z,181.22
2023-05-19T12:15:56.906Z,183.69
2023-05-19T12:16:56.932Z,179.26
2023-05-19T12:17:57.056Z,181.53
2023-05-19T12:18:57.111Z,186.90
2023-05-19T12:19:57.012Z,186.00
2023-05-19T12:20:57.076Z,188.87
2023-05-19T12:21:57.130Z,191.31
2023-05-19T12:22:57.199Z,187.63
2023-05-19T12:23:57.214Z,186.86
2023-05-19T12:24:57.275Z,184.01
2023-05-19T12:25:57.292Z,184.96
2023-05-19T12:26:57.330Z,185.68
2023-05-19T12:27:58.096Z,186.88
2023-05-19T12:28:57.395Z,191.33
2023-05-19T12:29:57.392Z,188.28